Time;durP1;ratioP1;P1;durP2;ratioP2;P2;SDS_P1;SDS_P2;PMS_P1;PMS_P2;Temp;Humidity;BMP_temperature;BMP_pressure;BME280_temperature;BME280_humidity;BME280_pressure;Samples;Min_cycle;Max_cycle;Signal;HPM_P1;HPM_P2
2022/06/26 00:01:53;;;;;;;13.85;3.17;;;;;;;;;;4973047;28;20514;-64
2022/06/26 00:04:18;;;;;;;12.10;2.97;;;;;;;;;;4980824;28;20101;-63
2022/06/26 00:06:44;;;;;;;9.55;2.90;;;;;;;;;;4976556;28;20055;-62
2022/06/26 00:09:10;;;;;;;14.80;3.30;;;;;;;;;;4976384;28;20154;-63
2022/06/26 00:11:36;;;;;;;13.38;3.05;;;;;;;;;;4976070;28;20050;-63
2022/06/26 00:14:02;;;;;;;11.45;2.90;;;;;;;;;;4972549;28;20093;-63
2022/06/26 00:16:28;;;;;;;11.98;2.95;;;;;;;;;;4974557;28;20402;-62
2022/06/26 00:18:54;;;;;;;15.40;3.28;;;;;;;;;;4975782;28;20080;-62
2022/06/26 00:21:20;;;;;;;8.73;2.65;;;;;;;;;;4973825;28;20039;-62
2022/06/26 00:23:45;;;;;;;13.30;2.97;;;;;;;;;;4975391;28;20516;-62
2022/06/26 00:26:11;;;;;;;20.80;3.20;;;;;;;;;;4974024;28;20524;-62
2022/06/26 00:28:37;;;;;;;11.05;2.75;;;;;;;;;;4978955;28;20058;-62
2022/06/26 00:31:03;;;;;;;11.98;3.80;;;;;;;;;;4978551;28;20935;-61
2022/06/26 00:33:29;;;;;;;10.23;2.88;;;;;;;;;;4976022;28;20049;-61
2022/06/26 00:35:55;;;;;;;11.40;3.20;;;;;;;;;;4973686;28;20055;-63
2022/06/26 00:38:20;;;;;;;12.50;2.92;;;;;;;;;;4979380;28;20081;-62
2022/06/26 00:40:46;;;;;;;11.80;2.80;;;;;;;;;;4982515;28;20500;-64
2022/06/26 00:43:12;;;;;;;10.07;3.00;;;;;;;;;;4973700;28;20062;-62
2022/06/26 00:45:38;;;;;;;7.53;2.80;;;;;;;;;;4972967;28;20054;-62
2022/06/26 00:48:04;;;;;;;10.73;3.33;;;;;;;;;;4972158;28;21407;-62
2022/06/26 00:50:30;;;;;;;12.95;3.30;;;;;;;;;;4972149;28;20328;-63
2022/06/26 00:52:57;;;;;;;6.90;2.63;;;;;;;;;;4971184;28;20078;-62
2022/06/26 00:55:23;;;;;;;16.27;3.15;;;;;;;;;;4966489;28;20070;-61
2022/06/26 00:57:49;;;;;;;10.68;3.30;;;;;;;;;;4975659;28;20043;-62
2022/06/26 01:00:16;;;;;;;11.82;2.92;;;;;;;;;;4980032;28;20054;-61
2022/06/26 01:02:41;;;;;;;17.65;3.13;;;;;;;;;;4974465;28;20113;-62
2022/06/26 01:05:08;;;;;;;15.68;3.35;;;;;;;;;;4978880;28;20151;-63
2022/06/26 01:07:34;;;;;;;12.25;3.55;;;;;;;;;;4974925;28;20061;-66
2022/06/26 01:10:02;;;;;;;10.38;2.85;;;;;;;;;;4974685;28;20141;-62
2022/06/26 01:12:28;;;;;;;13.77;3.38;;;;;;;;;;4974627;28;20123;-62
2022/06/26 01:14:55;;;;;;;11.52;2.92;;;;;;;;;;4982977;28;20054;-62
2022/06/26 01:17:20;;;;;;;13.40;3.35;;;;;;;;;;4977569;28;20125;-64
2022/06/26 01:19:46;;;;;;;11.88;2.80;;;;;;;;;;4977039;28;20487;-61
2022/06/26 01:22:12;;;;;;;10.88;3.13;;;;;;;;;;4980613;28;20136;-64
2022/06/26 01:24:38;;;;;;;15.77;3.40;;;;;;;;;;4975897;28;20069;-63
2022/06/26 01:27:05;;;;;;;15.65;3.00;;;;;;;;;;4973101;28;20054;-62
2022/06/26 01:29:30;;;;;;;10.88;3.20;;;;;;;;;;4973159;28;20063;-63
2022/06/26 01:31:56;;;;;;;13.73;3.45;;;;;;;;;;4976567;28;20526;-63
2022/06/26 01:34:23;;;;;;;12.90;3.60;;;;;;;;;;4976013;28;20054;-61
2022/06/26 01:36:49;;;;;;;12.45;3.70;;;;;;;;;;4976950;28;20077;-62
2022/06/26 01:39:18;;;;;;;15.93;3.85;;;;;;;;;;4983685;28;20554;-64
2022/06/26 01:41:45;;;;;;;13.05;3.50;;;;;;;;;;4980204;28;20181;-62
2022/06/26 01:44:10;;;;;;;11.35;3.50;;;;;;;;;;4978305;28;20954;-62
2022/06/26 01:46:36;;;;;;;11.02;3.22;;;;;;;;;;4975984;28;20054;-61
2022/06/26 01:49:02;;;;;;;15.65;3.75;;;;;;;;;;4974155;28;20388;-61
2022/06/26 01:51:28;;;;;;;12.98;4.05;;;;;;;;;;4976095;28;20194;-61
2022/06/26 01:53:54;;;;;;;10.00;3.35;;;;;;;;;;4975594;28;20051;-61
2022/06/26 01:56:20;;;;;;;15.07;3.65;;;;;;;;;;4977514;28;20306;-62
2022/06/26 01:58:45;;;;;;;12.40;4.35;;;;;;;;;;4977669;28;20518;-63
2022/06/26 02:01:11;;;;;;;13.73;3.83;;;;;;;;;;4977404;28;20090;-63
2022/06/26 02:03:37;;;;;;;14.68;4.68;;;;;;;;;;4979451;28;20056;-61
2022/06/26 02:06:03;;;;;;;14.73;4.00;;;;;;;;;;4975898;28;20043;-62
2022/06/26 02:08:29;;;;;;;13.40;3.78;;;;;;;;;;4977196;28;20046;-62
2022/06/26 02:13:42;;;;;;;13.73;3.72;;;;;;;;;;4978080;28;20687;-64
2022/06/26 02:16:30;;;;;;;14.90;3.85;;;;;;;;;;4977445;28;20057;-62
2022/06/26 02:18:57;;;;;;;15.60;3.78;;;;;;;;;;4972747;28;20100;-63
2022/06/26 02:21:27;;;;;;;14.40;3.65;;;;;;;;;;4978006;28;20055;-62
2022/06/26 02:23:54;;;;;;;10.20;3.88;;;;;;;;;;4974325;28;20055;-63
2022/06/26 02:26:20;;;;;;;13.13;3.95;;;;;;;;;;4976764;28;20491;-61
2022/06/26 02:28:47;;;;;;;13.80;4.03;;;;;;;;;;4981863;28;20444;-62
2022/06/26 02:31:13;;;;;;;13.25;4.28;;;;;;;;;;4981851;28;20054;-61
2022/06/26 02:33:39;;;;;;;14.95;4.32;;;;;;;;;;4976383;28;20046;-61
2022/06/26 02:36:06;;;;;;;17.23;3.83;;;;;;;;;;4978083;28;20050;-62
2022/06/26 02:38:33;;;;;;;13.63;3.55;;;;;;;;;;4988854;28;20049;-63
2022/06/26 02:40:59;;;;;;;14.35;3.92;;;;;;;;;;4990499;28;20042;-62
2022/06/26 02:43:26;;;;;;;9.88;3.83;;;;;;;;;;4987035;28;20047;-62
2022/06/26 02:45:53;;;;;;;12.27;3.60;;;;;;;;;;4985790;28;20176;-64
2022/06/26 02:48:20;;;;;;;10.35;4.18;;;;;;;;;;4989141;28;20042;-63
2022/06/26 02:50:49;;;;;;;12.95;3.67;;;;;;;;;;4996013;28;20456;-64
2022/06/26 02:53:15;;;;;;;13.15;3.60;;;;;;;;;;4994318;28;20391;-64
2022/06/26 02:55:42;;;;;;;13.63;3.95;;;;;;;;;;4990656;28;20043;-62
2022/06/26 02:58:07;;;;;;;12.95;3.70;;;;;;;;;;4993670;28;20053;-63
2022/06/26 03:00:33;;;;;;;13.95;4.18;;;;;;;;;;4994152;28;20045;-66
2022/06/26 03:03:03;;;;;;;14.63;4.63;;;;;;;;;;4991148;28;20084;-61
2022/06/26 03:05:30;;;;;;;14.75;3.92;;;;;;;;;;4992951;28;20054;-61
2022/06/26 03:07:56;;;;;;;10.50;3.67;;;;;;;;;;4988832;28;20046;-62
2022/06/26 03:10:23;;;;;;;12.82;3.72;;;;;;;;;;4990954;28;20485;-64
2022/06/26 03:12:50;;;;;;;18.45;4.28;;;;;;;;;;4993977;28;20548;-61
2022/06/26 03:15:17;;;;;;;12.32;4.43;;;;;;;;;;4992528;28;20046;-62
2022/06/26 03:17:43;;;;;;;11.13;3.97;;;;;;;;;;4980788;28;20050;-62
2022/06/26 03:20:13;;;;;;;13.75;4.05;;;;;;;;;;4994585;28;20137;-64
2022/06/26 03:22:39;;;;;;;10.80;3.90;;;;;;;;;;4987263;28;20049;-62
2022/06/26 03:25:07;;;;;;;12.07;3.92;;;;;;;;;;4994089;28;20074;-62
2022/06/26 03:27:33;;;;;;;8.15;3.35;;;;;;;;;;4993546;28;20052;-62
2022/06/26 03:29:59;;;;;;;11.65;4.00;;;;;;;;;;4991582;28;20121;-65
2022/06/26 03:32:25;;;;;;;13.88;4.45;;;;;;;;;;4993615;28;20553;-64
2022/06/26 03:34:51;;;;;;;16.00;3.72;;;;;;;;;;4986443;28;20050;-63
2022/06/26 03:37:17;;;;;;;13.43;3.85;;;;;;;;;;4981486;28;20317;-62
2022/06/26 03:39:43;;;;;;;12.68;4.55;;;;;;;;;;4992951;28;20538;-60
2022/06/26 03:42:09;;;;;;;10.48;4.07;;;;;;;;;;4988807;28;20042;-61
2022/06/26 03:44:35;;;;;;;10.88;3.70;;;;;;;;;;5004337;28;20127;-63
2022/06/26 03:47:00;;;;;;;14.35;3.83;;;;;;;;;;4986431;28;20480;-62
2022/06/26 03:49:26;;;;;;;11.05;3.60;;;;;;;;;;4988636;28;20097;-60
2022/06/26 03:51:52;;;;;;;10.88;3.50;;;;;;;;;;4989400;28;20065;-62
2022/06/26 03:54:19;;;;;;;10.10;3.78;;;;;;;;;;4991399;28;20050;-65
2022/06/26 03:56:46;;;;;;;12.52;3.63;;;;;;;;;;4977664;28;20125;-61
2022/06/26 03:59:12;;;;;;;12.43;3.30;;;;;;;;;;4990974;28;20038;-62
2022/06/26 04:01:38;;;;;;;9.75;2.97;;;;;;;;;;4993718;28;20554;-61
2022/06/26 04:04:05;;;;;;;10.50;3.42;;;;;;;;;;4994209;28;20463;-62
2022/06/26 04:06:31;;;;;;;12.18;3.30;;;;;;;;;;4988875;28;20043;-62
2022/06/26 04:08:57;;;;;;;11.95;3.38;;;;;;;;;;4989367;28;20050;-62
2022/06/26 04:11:23;;;;;;;8.80;2.92;;;;;;;;;;4990876;28;20462;-62
2022/06/26 04:13:49;;;;;;;12.32;3.00;;;;;;;;;;4987493;28;20097;-65
2022/06/26 04:16:17;;;;;;;8.38;3.08;;;;;;;;;;4982266;28;20050;-63
2022/06/26 04:18:43;;;;;;;13.60;3.38;;;;;;;;;;4987212;28;20042;-63
2022/06/26 04:21:09;;;;;;;11.40;3.53;;;;;;;;;;4988677;28;20135;-60
2022/06/26 04:23:35;;;;;;;9.93;3.35;;;;;;;;;;4992767;28;20412;-63
2022/06/26 04:26:01;;;;;;;14.02;3.60;;;;;;;;;;4993766;28;20125;-61
2022/06/26 04:28:26;;;;;;;11.05;3.38;;;;;;;;;;4984863;28;20404;-64
2022/06/26 04:30:52;;;;;;;8.07;2.97;;;;;;;;;;4982243;28;20514;-64
2022/06/26 04:33:18;;;;;;;12.95;3.55;;;;;;;;;;4988244;28;20058;-66
2022/06/26 04:35:44;;;;;;;12.73;3.05;;;;;;;;;;4988859;28;20108;-63
2022/06/26 04:38:10;;;;;;;13.73;3.47;;;;;;;;;;4977800;28;20050;-60
2022/06/26 04:40:36;;;;;;;8.63;3.35;;;;;;;;;;4992083;28;20430;-62
2022/06/26 04:43:01;;;;;;;10.57;3.20;;;;;;;;;;4990929;28;20129;-64
2022/06/26 04:45:27;;;;;;;8.40;3.28;;;;;;;;;;4980656;28;20065;-62
2022/06/26 04:47:53;;;;;;;13.73;3.15;;;;;;;;;;4988830;28;20050;-63
2022/06/26 04:50:19;;;;;;;8.50;2.67;;;;;;;;;;4988440;28;20129;-63
2022/06/26 04:52:46;;;;;;;9.65;2.92;;;;;;;;;;4984804;28;20065;-61
2022/06/26 04:55:13;;;;;;;10.77;3.28;;;;;;;;;;4980017;28;20043;-62
2022/06/26 04:57:39;;;;;;;12.82;3.40;;;;;;;;;;4988129;28;20050;-62
2022/06/26 05:00:08;;;;;;;13.55;3.20;;;;;;;;;;4990039;28;21105;-62
2022/06/26 05:02:36;;;;;;;9.00;3.35;;;;;;;;;;4993644;28;20145;-61
2022/06/26 05:05:03;;;;;;;9.70;3.30;;;;;;;;;;5001725;28;20050;-62
2022/06/26 05:07:29;;;;;;;9.60;3.33;;;;;;;;;;4993550;28;20108;-62
2022/06/26 05:09:55;;;;;;;11.43;3.63;;;;;;;;;;4992962;28;20059;-63
2022/06/26 05:12:21;;;;;;;14.15;4.18;;;;;;;;;;5011306;28;20236;-63
2022/06/26 05:14:47;;;;;;;10.43;3.63;;;;;;;;;;4993316;28;20110;-63
2022/06/26 05:17:13;;;;;;;11.00;4.07;;;;;;;;;;4990039;28;20066;-62
2022/06/26 05:19:38;;;;;;;16.23;4.13;;;;;;;;;;5002679;28;20034;-62
2022/06/26 05:22:05;;;;;;;10.50;3.28;;;;;;;;;;4995476;28;20046;-62
2022/06/26 05:24:31;;;;;;;12.63;3.45;;;;;;;;;;4995672;28;20068;-61
2022/06/26 05:26:58;;;;;;;10.95;3.40;;;;;;;;;;4980105;28;20046;-61
2022/06/26 05:29:25;;;;;;;11.80;3.58;;;;;;;;;;4991962;28;20074;-62
2022/06/26 05:31:51;;;;;;;12.05;3.75;;;;;;;;;;4991865;28;20061;-62
2022/06/26 05:34:17;;;;;;;12.77;4.38;;;;;;;;;;4991216;28;20106;-71
2022/06/26 05:36:43;;;;;;;14.25;4.45;;;;;;;;;;4986839;28;20042;-64
2022/06/26 05:39:09;;;;;;;13.48;4.47;;;;;;;;;;4993693;28;20046;-63
2022/06/26 05:41:35;;;;;;;11.55;4.22;;;;;;;;;;4991284;28;20034;-64
2022/06/26 05:44:01;;;;;;;11.90;4.40;;;;;;;;;;4992944;28;20381;-62
2022/06/26 05:46:27;;;;;;;12.13;3.95;;;;;;;;;;4982547;28;20070;-63
2022/06/26 05:48:53;;;;;;;10.65;4.20;;;;;;;;;;4994560;28;20056;-64
2022/06/26 05:51:19;;;;;;;10.80;3.97;;;;;;;;;;4987222;28;20042;-62
2022/06/26 05:53:45;;;;;;;16.15;4.47;;;;;;;;;;4990736;28;20039;-65
2022/06/26 05:56:10;;;;;;;14.65;4.13;;;;;;;;;;4992497;28;20051;-61
2022/06/26 05:58:36;;;;;;;14.48;4.55;;;;;;;;;;4993137;28;20063;-60
2022/06/26 06:01:02;;;;;;;12.60;4.65;;;;;;;;;;4991511;28;20050;-63
2022/06/26 06:03:28;;;;;;;15.07;4.30;;;;;;;;;;4993213;28;20069;-61
2022/06/26 06:05:54;;;;;;;11.40;4.43;;;;;;;;;;4989325;28;20412;-69
2022/06/26 06:08:20;;;;;;;11.65;4.15;;;;;;;;;;4999308;28;20057;-63
2022/06/26 06:10:45;;;;;;;16.33;4.47;;;;;;;;;;4992838;28;20050;-62
2022/06/26 06:13:11;;;;;;;16.45;4.63;;;;;;;;;;4986538;28;20046;-62
2022/06/26 06:15:37;;;;;;;12.63;4.30;;;;;;;;;;4992788;28;20051;-63
2022/06/26 06:18:03;;;;;;;8.27;4.10;;;;;;;;;;4990123;28;20684;-62
2022/06/26 06:20:28;;;;;;;14.20;4.72;;;;;;;;;;4998787;28;20046;-63
2022/06/26 06:23:00;;;;;;;7.97;3.90;;;;;;;;;;4995951;28;20058;-63
2022/06/26 06:25:26;;;;;;;10.88;4.43;;;;;;;;;;4992090;28;20062;-63
2022/06/26 06:27:52;;;;;;;11.68;4.38;;;;;;;;;;4994998;28;20100;-63
2022/06/26 06:30:19;;;;;;;10.20;4.60;;;;;;;;;;4980852;28;20060;-64
2022/06/26 06:32:45;;;;;;;10.93;4.32;;;;;;;;;;4994482;28;20138;-64
2022/06/26 06:35:13;;;;;;;12.40;4.18;;;;;;;;;;4995571;28;20042;-64
2022/06/26 06:37:43;;;;;;;15.02;4.40;;;;;;;;;;4992890;28;20045;-63
2022/06/26 06:40:11;;;;;;;14.38;4.75;;;;;;;;;;4983859;28;20049;-61
2022/06/26 06:42:37;;;;;;;12.45;4.57;;;;;;;;;;4990386;28;20042;-61
2022/06/26 06:45:04;;;;;;;10.05;4.78;;;;;;;;;;4990022;28;20073;-61
2022/06/26 06:47:30;;;;;;;14.48;4.88;;;;;;;;;;4989781;28;20135;-65
2022/06/26 06:49:55;;;;;;;10.52;4.25;;;;;;;;;;4989318;28;20081;-64
2022/06/26 06:52:21;;;;;;;11.88;4.70;;;;;;;;;;4996251;28;20050;-61
2022/06/26 06:54:47;;;;;;;10.93;4.80;;;;;;;;;;4989299;28;20042;-61
2022/06/26 06:57:13;;;;;;;9.57;4.63;;;;;;;;;;4985687;28;20038;-62
2022/06/26 06:59:39;;;;;;;11.98;4.78;;;;;;;;;;4989264;28;20058;-62
2022/06/26 07:02:05;;;;;;;8.57;4.45;;;;;;;;;;4985976;28;20455;-61
2022/06/26 07:04:30;;;;;;;13.45;5.18;;;;;;;;;;4989748;28;20658;-65
2022/06/26 07:06:56;;;;;;;8.05;4.57;;;;;;;;;;4988615;28;20058;-65
2022/06/26 07:09:22;;;;;;;12.40;5.10;;;;;;;;;;4994629;28;20445;-64
2022/06/26 07:11:49;;;;;;;11.90;4.78;;;;;;;;;;4988190;28;20164;-62
2022/06/26 07:14:15;;;;;;;13.40;5.65;;;;;;;;;;4987167;28;20046;-63
2022/06/26 07:16:41;;;;;;;12.75;5.95;;;;;;;;;;4988243;28;20053;-61
2022/06/26 07:19:07;;;;;;;11.75;4.47;;;;;;;;;;4988840;28;20050;-64
2022/06/26 07:21:33;;;;;;;12.52;5.38;;;;;;;;;;4980527;28;20066;-63
2022/06/26 07:23:59;;;;;;;9.52;4.30;;;;;;;;;;4989801;28;20386;-62
2022/06/26 07:26:25;;;;;;;12.23;4.78;;;;;;;;;;4989216;28;20046;-62
2022/06/26 07:28:51;;;;;;;7.93;4.43;;;;;;;;;;4990258;28;20037;-61
2022/06/26 07:31:17;;;;;;;11.75;4.40;;;;;;;;;;4988022;28;20057;-64
2022/06/26 07:36:28;;;;;;;8.07;3.85;;;;;;;;;;4975961;28;20058;-62
2022/06/26 07:38:54;;;;;;;10.20;4.03;;;;;;;;;;4995888;28;20111;-62
2022/06/26 07:41:21;;;;;;;10.10;4.50;;;;;;;;;;4986523;28;20514;-64
2022/06/26 07:43:47;;;;;;;10.90;4.15;;;;;;;;;;4988061;28;20108;-63
2022/06/26 07:46:13;;;;;;;11.90;4.30;;;;;;;;;;4991592;28;20125;-64
2022/06/26 07:48:39;;;;;;;16.70;4.63;;;;;;;;;;4987587;28;20173;-63
2022/06/26 07:51:05;;;;;;;16.52;3.95;;;;;;;;;;4998660;28;20050;-63
2022/06/26 07:53:31;;;;;;;8.02;3.33;;;;;;;;;;4992396;28;20415;-66
2022/06/26 07:55:57;;;;;;;8.82;3.17;;;;;;;;;;4997334;28;20456;-63
2022/06/26 07:58:23;;;;;;;11.93;3.53;;;;;;;;;;4991373;28;20042;-66
2022/06/26 08:00:49;;;;;;;9.88;3.30;;;;;;;;;;4991055;28;20060;-64
2022/06/26 08:03:15;;;;;;;12.25;4.03;;;;;;;;;;4989196;28;20049;-63
2022/06/26 08:05:42;;;;;;;10.70;3.70;;;;;;;;;;4988947;28;20038;-67
2022/06/26 08:08:08;;;;;;;12.98;3.67;;;;;;;;;;5001051;28;20045;-64
2022/06/26 08:10:36;;;;;;;9.52;3.55;;;;;;;;;;4989755;28;20162;-64
2022/06/26 08:13:03;;;;;;;9.40;3.40;;;;;;;;;;4992770;28;20471;-64
2022/06/26 08:15:30;;;;;;;17.20;3.72;;;;;;;;;;4981370;28;20417;-63
2022/06/26 08:17:56;;;;;;;9.88;3.35;;;;;;;;;;4987827;28;20091;-64
2022/06/26 08:20:22;;;;;;;8.65;3.45;;;;;;;;;;4989381;28;20042;-65
2022/06/26 08:22:48;;;;;;;11.70;3.65;;;;;;;;;;4984181;28;20125;-64
2022/06/26 08:25:14;;;;;;;8.10;3.60;;;;;;;;;;4989580;28;20121;-63
2022/06/26 08:27:40;;;;;;;13.55;3.55;;;;;;;;;;4979308;28;20045;-63
2022/06/26 08:30:06;;;;;;;6.07;3.28;;;;;;;;;;4980538;28;20519;-63
2022/06/26 08:32:33;;;;;;;14.15;4.07;;;;;;;;;;4987879;28;20054;-63
2022/06/26 08:34:59;;;;;;;9.52;3.45;;;;;;;;;;4999732;28;20119;-64
2022/06/26 08:37:25;;;;;;;7.90;3.05;;;;;;;;;;4986773;28;20045;-63
2022/06/26 08:39:51;;;;;;;9.63;2.90;;;;;;;;;;4991356;28;20449;-63
2022/06/26 08:42:18;;;;;;;9.50;2.97;;;;;;;;;;4983775;28;20587;-66
2022/06/26 08:44:46;;;;;;;9.70;2.90;;;;;;;;;;4978614;28;20133;-63
2022/06/26 08:47:12;;;;;;;12.98;2.97;;;;;;;;;;4990815;28;20548;-67
2022/06/26 08:49:41;;;;;;;13.55;2.70;;;;;;;;;;4994461;28;20100;-65
2022/06/26 08:52:10;;;;;;;7.10;2.60;;;;;;;;;;4984628;28;20064;-63
2022/06/26 08:54:36;;;;;;;9.35;2.92;;;;;;;;;;4995574;28;20070;-64
2022/06/26 08:57:04;;;;;;;7.90;2.83;;;;;;;;;;4988514;28;20488;-64
2022/06/26 08:59:30;;;;;;;9.70;3.40;;;;;;;;;;4994685;28;20053;-64
2022/06/26 09:01:55;;;;;;;7.53;2.40;;;;;;;;;;4993321;28;20050;-63
2022/06/26 09:04:22;;;;;;;10.95;2.85;;;;;;;;;;4994488;28;20042;-64
2022/06/26 09:06:48;;;;;;;9.70;3.03;;;;;;;;;;4997518;28;20042;-63
2022/06/26 09:09:22;;;;;;;11.48;2.80;;;;;;;;;;4989934;28;20105;-65
2022/06/26 09:11:49;;;;;;;8.98;2.28;;;;;;;;;;5001278;28;20534;-63
2022/06/26 09:14:15;;;;;;;9.63;2.63;;;;;;;;;;4996409;28;20069;-65
2022/06/26 09:16:43;;;;;;;6.07;2.15;;;;;;;;;;4993619;28;20657;-67
2022/06/26 09:19:12;;;;;;;8.45;2.80;;;;;;;;;;4983484;28;20486;-63
2022/06/26 09:21:38;;;;;;;9.25;2.35;;;;;;;;;;4982545;28;20050;-64
2022/06/26 09:24:09;;;;;;;7.05;2.30;;;;;;;;;;4989778;28;20034;-66
2022/06/26 09:26:35;;;;;;;9.80;2.20;;;;;;;;;;4988575;28;20407;-64
2022/06/26 09:29:11;;;;;;;10.02;2.30;;;;;;;;;;4991989;28;20042;-64
2022/06/26 09:31:38;;;;;;;8.73;2.30;;;;;;;;;;4994214;28;20110;-65
2022/06/26 09:34:06;;;;;;;8.25;2.35;;;;;;;;;;4982871;28;20126;-63
2022/06/26 09:36:32;;;;;;;12.43;3.13;;;;;;;;;;4992129;28;20065;-63
2022/06/26 09:38:58;;;;;;;8.32;2.38;;;;;;;;;;4988582;28;20394;-62
2022/06/26 09:41:32;;;;;;;5.50;2.08;;;;;;;;;;4990204;28;20511;-64
2022/06/26 09:43:58;;;;;;;7.80;2.28;;;;;;;;;;4984389;28;20051;-66
2022/06/26 09:46:32;;;;;;;8.10;2.58;;;;;;;;;;4984556;28;20047;-64
2022/06/26 09:48:59;;;;;;;6.70;2.60;;;;;;;;;;4983619;28;20065;-65
2022/06/26 09:51:26;;;;;;;9.70;2.33;;;;;;;;;;4990695;28;20511;-68
2022/06/26 09:53:53;;;;;;;9.27;2.42;;;;;;;;;;4990365;28;20403;-64
2022/06/26 09:56:19;;;;;;;9.55;2.30;;;;;;;;;;4986846;28;20503;-65
2022/06/26 09:58:45;;;;;;;14.57;2.20;;;;;;;;;;4983426;28;20056;-63
2022/06/26 10:06:46;;;;;;;9.05;2.03;;;;;;;;;;5002252;28;20108;-65
2022/06/26 10:09:15;;;;;;;7.43;2.03;;;;;;;;;;4993864;28;20042;-65
2022/06/26 10:11:42;;;;;;;10.25;2.10;;;;;;;;;;4989989;28;20137;-65
2022/06/26 10:14:19;;;;;;;6.22;1.80;;;;;;;;;;4989975;28;20054;-65
2022/06/26 10:17:04;;;;;;;7.82;2.00;;;;;;;;;;4986174;28;20096;-67
2022/06/26 10:19:45;;;;;;;8.77;1.90;;;;;;;;;;4988834;28;20129;-65
2022/06/26 10:22:13;;;;;;;8.60;2.10;;;;;;;;;;4991402;28;20054;-63
2022/06/26 10:24:57;;;;;;;6.93;1.90;;;;;;;;;;4995982;28;20043;-66
2022/06/26 10:27:31;;;;;;;8.50;2.03;;;;;;;;;;4989609;28;20061;-65
2022/06/26 10:30:21;;;;;;;6.80;2.00;;;;;;;;;;4994100;28;20085;-63
2022/06/26 10:33:06;;;;;;;5.53;2.17;;;;;;;;;;4991281;28;20635;-64
2022/06/26 10:35:39;;;;;;;8.18;2.40;;;;;;;;;;4992181;28;20058;-65
2022/06/26 10:38:19;;;;;;;9.75;2.03;;;;;;;;;;4986492;28;20055;-62
2022/06/26 10:43:44;;;;;;;6.63;1.88;;;;;;;;;;4989596;28;20077;-64
2022/06/26 10:46:11;;;;;;;8.23;2.40;;;;;;;;;;4991063;28;20379;-64
2022/06/26 10:48:37;;;;;;;7.78;2.25;;;;;;;;;;4991199;28;20551;-65
2022/06/26 10:51:03;;;;;;;8.25;2.03;;;;;;;;;;4990198;28;20080;-64
2022/06/26 10:53:37;;;;;;;7.88;2.20;;;;;;;;;;4988710;28;20410;-65
2022/06/26 10:56:05;;;;;;;5.88;1.92;;;;;;;;;;4986050;28;20054;-66
2022/06/26 10:58:42;;;;;;;7.05;2.20;;;;;;;;;;4981009;28;20458;-65
2022/06/26 11:01:10;;;;;;;9.43;2.17;;;;;;;;;;4997362;28;20046;-65
2022/06/26 11:03:37;;;;;;;5.45;1.85;;;;;;;;;;4987919;28;20243;-64
2022/06/26 11:06:09;;;;;;;7.68;1.67;;;;;;;;;;4993785;28;20169;-64
2022/06/26 11:08:46;;;;;;;7.22;1.52;;;;;;;;;;4990834;28;20050;-66
2022/06/26 11:11:23;;;;;;;6.53;1.75;;;;;;;;;;4992561;28;20542;-66
2022/06/26 11:13:55;;;;;;;5.18;2.00;;;;;;;;;;4987580;28;20288;-63
2022/06/26 11:16:42;;;;;;;6.95;1.90;;;;;;;;;;4996092;28;20049;-63
2022/06/26 11:19:21;;;;;;;6.80;1.67;;;;;;;;;;4993919;28;20157;-63
2022/06/26 11:21:47;;;;;;;10.60;1.73;;;;;;;;;;4998463;28;20049;-65
2022/06/26 11:24:13;;;;;;;5.32;1.83;;;;;;;;;;4987882;28;20054;-64
2022/06/26 11:26:39;;;;;;;7.05;1.70;;;;;;;;;;4987539;28;20104;-65
2022/06/26 11:29:08;;;;;;;7.60;1.60;;;;;;;;;;4998083;28;20052;-65
2022/06/26 11:31:35;;;;;;;8.52;1.77;;;;;;;;;;4998696;28;20497;-65
2022/06/26 11:34:12;;;;;;;8.25;1.95;;;;;;;;;;4989517;28;20440;-64
2022/06/26 11:36:49;;;;;;;6.65;2.17;;;;;;;;;;4988547;28;20076;-65
2022/06/26 11:39:15;;;;;;;8.00;2.28;;;;;;;;;;4988131;28;20107;-66
2022/06/26 11:41:41;;;;;;;7.03;2.00;;;;;;;;;;4992252;28;20054;-65
2022/06/26 11:44:07;;;;;;;5.72;1.92;;;;;;;;;;4981784;28;20080;-63
2022/06/26 11:46:33;;;;;;;5.72;2.33;;;;;;;;;;4993142;28;20046;-66
2022/06/26 11:48:59;;;;;;;7.55;2.03;;;;;;;;;;4989514;28;20057;-66
2022/06/26 11:51:30;;;;;;;8.05;2.25;;;;;;;;;;4992367;28;20054;-64
2022/06/26 11:53:56;;;;;;;10.13;2.33;;;;;;;;;;4992262;28;20042;-65
2022/06/26 11:56:25;;;;;;;5.68;1.90;;;;;;;;;;4990890;28;20042;-67
2022/06/26 11:58:52;;;;;;;6.05;1.98;;;;;;;;;;4984130;28;20093;-66
2022/06/26 12:01:19;;;;;;;6.90;1.85;;;;;;;;;;4976867;28;20502;-65
2022/06/26 12:03:50;;;;;;;4.22;1.60;;;;;;;;;;4979658;28;20050;-65
2022/06/26 12:06:30;;;;;;;8.45;1.90;;;;;;;;;;4988537;28;20057;-63
2022/06/26 12:08:57;;;;;;;7.57;2.20;;;;;;;;;;4988633;28;20050;-65
2022/06/26 12:11:24;;;;;;;8.73;2.28;;;;;;;;;;4986539;28;20042;-66
2022/06/26 12:13:50;;;;;;;7.10;1.98;;;;;;;;;;4983182;28;20046;-63
2022/06/26 12:16:18;;;;;;;9.23;2.10;;;;;;;;;;4994350;28;20053;-64
2022/06/26 12:18:45;;;;;;;3.90;1.55;;;;;;;;;;4987607;28;20329;-64
2022/06/26 12:21:22;;;;;;;7.95;1.70;;;;;;;;;;4983906;28;20085;-65
2022/06/26 12:23:51;;;;;;;6.55;2.10;;;;;;;;;;4998412;28;20433;-63
2022/06/26 12:26:19;;;;;;;7.75;2.08;;;;;;;;;;4975327;28;20047;-62
2022/06/26 12:28:51;;;;;;;8.35;2.30;;;;;;;;;;4987937;28;20046;-64
2022/06/26 12:31:20;;;;;;;8.48;2.30;;;;;;;;;;4988422;28;20050;-65
2022/06/26 12:33:48;;;;;;;6.18;1.75;;;;;;;;;;4991872;28;20169;-63
2022/06/26 12:36:16;;;;;;;7.00;1.80;;;;;;;;;;4988570;28;20049;-64
2022/06/26 12:38:42;;;;;;;10.77;3.15;;;;;;;;;;4993181;28;20046;-67
2022/06/26 12:41:16;;;;;;;7.82;2.65;;;;;;;;;;4985061;28;20109;-66
2022/06/26 12:43:47;;;;;;;7.63;2.65;;;;;;;;;;4992308;28;20384;-66
2022/06/26 12:46:14;;;;;;;6.97;1.95;;;;;;;;;;4980536;28;20051;-65
2022/06/26 12:48:40;;;;;;;8.60;2.20;;;;;;;;;;4979639;28;20039;-65
2022/06/26 12:51:06;;;;;;;7.07;1.90;;;;;;;;;;4985218;28;20403;-64
2022/06/26 12:53:33;;;;;;;4.28;1.85;;;;;;;;;;4992982;28;20069;-66
2022/06/26 12:55:59;;;;;;;9.57;1.95;;;;;;;;;;4996350;28;20050;-64
2022/06/26 12:58:26;;;;;;;7.55;2.00;;;;;;;;;;4987660;28;20042;-64
2022/06/26 13:00:52;;;;;;;9.43;2.17;;;;;;;;;;4980173;28;20499;-65
2022/06/26 13:03:18;;;;;;;11.88;2.00;;;;;;;;;;4983782;28;20047;-67
2022/06/26 13:05:45;;;;;;;7.68;2.10;;;;;;;;;;4983930;28;20708;-63
2022/06/26 13:08:12;;;;;;;6.88;2.08;;;;;;;;;;4984504;28;20052;-68
2022/06/26 13:10:39;;;;;;;6.93;1.88;;;;;;;;;;4985436;28;20055;-65
2022/06/26 13:13:05;;;;;;;4.82;1.50;;;;;;;;;;4981837;28;20117;-64
2022/06/26 13:15:31;;;;;;;5.43;1.60;;;;;;;;;;4977287;28;20057;-68
2022/06/26 13:17:56;;;;;;;8.23;1.60;;;;;;;;;;4979591;28;20054;-64
2022/06/26 13:20:23;;;;;;;7.40;1.70;;;;;;;;;;4977399;28;20030;-65
2022/06/26 13:22:49;;;;;;;7.07;1.90;;;;;;;;;;4979994;28;20101;-66
2022/06/26 13:25:15;;;;;;;5.35;1.80;;;;;;;;;;4992326;28;20034;-65
2022/06/26 13:27:41;;;;;;;5.60;1.92;;;;;;;;;;4984051;28;20046;-68
2022/06/26 13:30:07;;;;;;;7.18;1.98;;;;;;;;;;4979852;28;20515;-67
2022/06/26 13:32:33;;;;;;;4.63;1.45;;;;;;;;;;4987314;28;20221;-67
2022/06/26 13:34:59;;;;;;;8.57;2.10;;;;;;;;;;4986762;28;20104;-65
2022/06/26 13:37:25;;;;;;;7.70;2.20;;;;;;;;;;4985379;28;20050;-65
2022/06/26 13:39:51;;;;;;;5.93;2.13;;;;;;;;;;4981758;28;20060;-65
2022/06/26 13:42:18;;;;;;;8.27;1.70;;;;;;;;;;4987506;28;20085;-66
2022/06/26 13:44:44;;;;;;;6.40;1.92;;;;;;;;;;4990078;28;20042;-64
2022/06/26 13:47:10;;;;;;;7.82;1.95;;;;;;;;;;4982335;28;20373;-63
2022/06/26 13:49:38;;;;;;;10.60;1.95;;;;;;;;;;4986487;28;20045;-65
2022/06/26 13:52:04;;;;;;;8.77;2.40;;;;;;;;;;4988289;28;20055;-65
2022/06/26 13:54:31;;;;;;;6.30;1.95;;;;;;;;;;4983920;28;20051;-63
2022/06/26 13:56:57;;;;;;;9.68;2.10;;;;;;;;;;4981133;28;20054;-64
2022/06/26 13:59:24;;;;;;;7.43;1.90;;;;;;;;;;4990766;28;20405;-65
2022/06/26 14:01:49;;;;;;;14.45;3.60;;;;;;;;;;4990467;28;20051;-66
2022/06/26 14:04:15;;;;;;;12.95;2.90;;;;;;;;;;4978572;28;20991;-64
2022/06/26 14:06:42;;;;;;;6.10;1.55;;;;;;;;;;4983690;28;20065;-64
2022/06/26 14:09:08;;;;;;;6.00;1.85;;;;;;;;;;4980566;28;20411;-64
2022/06/26 14:11:34;;;;;;;7.50;2.03;;;;;;;;;;4986267;28;20046;-66
2022/06/26 14:14:00;;;;;;;6.70;2.08;;;;;;;;;;4988537;28;20038;-63
2022/06/26 14:16:25;;;;;;;8.25;1.98;;;;;;;;;;4991220;28;20045;-64
2022/06/26 14:18:51;;;;;;;5.18;1.50;;;;;;;;;;4996047;28;20041;-66
2022/06/26 14:21:18;;;;;;;8.77;2.10;;;;;;;;;;4990838;28;20415;-65
2022/06/26 14:26:28;;;;;;;7.68;2.00;;;;;;;;;;4988799;28;20060;-63
2022/06/26 14:28:54;;;;;;;5.45;1.58;;;;;;;;;;4987458;28;20046;-66
2022/06/26 14:31:20;;;;;;;8.50;2.00;;;;;;;;;;4983225;28;20065;-64
2022/06/26 14:33:46;;;;;;;7.68;1.98;;;;;;;;;;4985071;28;20407;-65
2022/06/26 14:36:13;;;;;;;6.13;1.90;;;;;;;;;;4995602;28;20046;-64
2022/06/26 14:38:39;;;;;;;4.50;1.48;;;;;;;;;;4987004;28;20042;-62
2022/06/26 14:41:05;;;;;;;8.98;2.22;;;;;;;;;;4997688;28;20051;-63
2022/06/26 14:43:32;;;;;;;7.18;2.03;;;;;;;;;;4989317;28;20090;-65
2022/06/26 14:45:58;;;;;;;5.72;1.75;;;;;;;;;;4988603;28;20157;-66
2022/06/26 14:48:25;;;;;;;7.15;1.55;;;;;;;;;;4988120;28;20510;-62
2022/06/26 14:50:54;;;;;;;6.75;2.00;;;;;;;;;;5002820;28;20046;-65
2022/06/26 14:53:23;;;;;;;5.03;1.67;;;;;;;;;;4988642;28;20475;-62